createdAt,value
2023-03-07T00:00:12.925Z,67.95
2023-03-07T00:03:05.430Z,68.11
2023-03-07T00:05:37.699Z,68.18
2023-03-07T00:08:10.286Z,68.32
2023-03-07T00:10:42.598Z,68.13
2023-03-07T00:13:14.736Z,68.15
2023-03-07T00:15:46.887Z,68.08
2023-03-07T00:18:19.195Z,68.12
2023-03-07T00:20:59.787Z,68.06
2023-03-07T00:23:31.904Z,68.01
2023-03-07T00:26:06.452Z,68.02
2023-03-07T00:28:38.900Z,67.95
2023-03-07T00:31:12.437Z,67.88
2023-03-07T00:33:44.685Z,67.89
2023-03-07T00:36:19.888Z,68.17
2023-03-07T00:38:50.685Z,68.15
2023-03-07T00:41:24.351Z,68.02
2023-03-07T00:43:57.570Z,68.37
2023-03-07T00:46:30.992Z,68.21
2023-03-07T00:49:04.049Z,68.25
2023-03-07T00:51:36.228Z,68.47
2023-03-07T00:54:09.217Z,68.56
2023-03-07T00:56:41.867Z,68.48
2023-03-07T00:59:14.599Z,68.40
2023-03-07T01:01:46.765Z,68.18
2023-03-07T01:04:19.221Z,68.16
2023-03-07T01:06:51.823Z,68.19
2023-03-07T01:09:24.738Z,68.22
2023-03-07T01:11:56.976Z,68.38
2023-03-07T01:14:30.680Z,68.39
2023-03-07T01:17:04.115Z,68.48
2023-03-07T01:19:36.249Z,68.55
2023-03-07T01:22:08.644Z,68.55
2023-03-07T01:24:41.761Z,68.54
2023-03-07T01:27:14.211Z,68.56
2023-03-07T01:29:46.489Z,68.62
2023-03-07T01:32:18.930Z,68.60
2023-03-07T01:34:51.181Z,68.48
2023-03-07T01:37:23.674Z,68.64
2023-03-07T01:39:56.871Z,68.74
2023-03-07T01:42:32.921Z,68.45
2023-03-07T01:45:09.776Z,68.40
2023-03-07T01:47:47.937Z,68.55
2023-03-07T01:50:21.001Z,68.45
2023-03-07T01:52:57.307Z,68.54
2023-03-07T01:55:34.073Z,68.58
2023-03-07T01:58:16.552Z,68.81
2023-03-07T02:00:48.736Z,68.96
2023-03-07T02:03:31.590Z,68.82
2023-03-07T02:06:06.900Z,68.81
2023-03-07T02:08:41.406Z,68.88
2023-03-07T02:11:14.239Z,69.00
2023-03-07T02:13:46.408Z,68.77
2023-03-07T02:16:19.002Z,68.70
2023-03-07T02:18:52.229Z,68.83
2023-03-07T02:21:35.838Z,68.77
2023-03-07T02:24:16.916Z,68.65
2023-03-07T02:26:50.825Z,68.60
2023-03-07T02:29:23.538Z,68.51
2023-03-07T02:31:55.759Z,68.57
2023-03-07T02:34:30.329Z,68.71
2023-03-07T02:37:26.689Z,68.82
2023-03-07T02:40:00.240Z,68.70
2023-03-07T02:42:35.036Z,68.75
2023-03-07T02:45:15.073Z,68.99
2023-03-07T02:47:48.596Z,69.06
2023-03-07T02:50:22.503Z,69.08
2023-03-07T02:52:56.960Z,69.18
2023-03-07T02:55:29.478Z,69.08
2023-03-07T02:58:04.694Z,69.13
2023-03-07T03:00:37.167Z,69.08
2023-03-07T03:03:09.590Z,69.16
2023-03-07T03:05:41.679Z,69.05
2023-03-07T03:08:13.931Z,68.78
2023-03-07T03:10:46.230Z,68.98
2023-03-07T03:13:19.042Z,68.84
2023-03-07T03:15:55.840Z,69.15
2023-03-07T03:18:30.394Z,69.08
2023-03-07T03:21:10.650Z,69.28
2023-03-07T03:23:43.315Z,69.39
2023-03-07T03:26:15.833Z,69.37
2023-03-07T03:28:48.058Z,69.44
2023-03-07T03:31:20.579Z,69.52
2023-03-07T03:33:53.436Z,69.60
2023-03-07T03:36:26.630Z,69.55
2023-03-07T03:39:01.661Z,69.44
2023-03-07T03:41:34.517Z,69.61
2023-03-07T03:44:06.968Z,69.55
2023-03-07T03:46:39.627Z,69.43
2023-03-07T03:49:16.791Z,69.36
2023-03-07T03:51:49.928Z,69.32
2023-03-07T03:54:22.763Z,69.32
2023-03-07T03:56:56.160Z,69.48
2023-03-07T03:59:28.387Z,69.20
2023-03-07T04:02:00.668Z,69.31
2023-03-07T04:04:32.924Z,69.46
2023-03-07T04:07:05.520Z,69.45
2023-03-07T04:09:38.080Z,69.41
2023-03-07T04:12:11.049Z,69.80
2023-03-07T04:14:43.280Z,69.82
2023-03-07T04:17:15.454Z,69.70
2023-03-07T04:19:47.741Z,69.89
2023-03-07T04:22:19.961Z,69.81
2023-03-07T04:24:52.155Z,69.63
2023-03-07T04:27:24.508Z,69.62
2023-03-07T04:29:57.105Z,69.45
2023-03-07T04:32:30.046Z,69.41
2023-03-07T04:35:02.337Z,69.29
2023-03-07T04:37:34.585Z,69.46
2023-03-07T04:40:07.972Z,69.52
2023-03-07T04:42:40.429Z,69.43
2023-03-07T04:45:14.260Z,69.54
2023-03-07T04:47:46.535Z,69.75
2023-03-07T04:50:20.139Z,69.81
2023-03-07T04:52:52.739Z,69.84
2023-03-07T04:55:25.162Z,70.09
2023-03-07T04:57:57.875Z,69.95
2023-03-07T05:00:30.881Z,69.91
2023-03-07T05:03:03.278Z,69.86
2023-03-07T05:05:37.598Z,69.69
2023-03-07T05:08:10.484Z,69.84
2023-03-07T05:10:43.099Z,69.82
2023-03-07T05:13:15.306Z,69.67
2023-03-07T05:15:53.745Z,69.46
2023-03-07T05:18:27.859Z,69.58
2023-03-07T05:21:02.183Z,69.78
2023-03-07T05:23:34.818Z,69.77
2023-03-07T05:26:07.311Z,69.83
2023-03-07T05:28:39.993Z,69.79
2023-03-07T05:31:12.629Z,69.98
2023-03-07T05:33:44.812Z,70.08
2023-03-07T05:36:17.698Z,69.95
2023-03-07T05:38:49.990Z,70.03
2023-03-07T05:41:22.211Z,70.02
2023-03-07T05:43:55.451Z,69.98
2023-03-07T05:46:28.370Z,69.83
2023-03-07T05:49:00.666Z,69.87
2023-03-07T05:51:33.117Z,69.80
2023-03-07T05:54:05.538Z,69.89
2023-03-07T05:56:37.841Z,69.69
2023-03-07T05:59:13.079Z,69.99
2023-03-07T06:01:45.524Z,69.98
2023-03-07T06:04:17.896Z,69.86
2023-03-07T06:06:50.205Z,69.41
2023-03-07T06:09:23.710Z,69.54
2023-03-07T06:11:56.810Z,69.62
2023-03-07T06:14:28.973Z,69.87
2023-03-07T06:17:01.633Z,69.90
2023-03-07T06:19:34.079Z,69.77
2023-03-07T06:22:06.536Z,70.23
2023-03-07T06:24:38.934Z,70.23
2023-03-07T06:27:11.943Z,70.47
2023-03-07T06:29:45.135Z,70.34
2023-03-07T06:32:17.227Z,70.17
2023-03-07T06:34:49.396Z,70.41
2023-03-07T06:37:21.718Z,70.25
2023-03-07T06:39:54.398Z,70.36
2023-03-07T06:42:26.702Z,70.45
2023-03-07T06:44:59.092Z,70.34
2023-03-07T06:47:33.320Z,70.24
2023-03-07T06:50:06.132Z,70.23
2023-03-07T06:52:38.749Z,70.08
2023-03-07T06:55:13.424Z,69.90
2023-03-07T06:57:45.541Z,70.16
2023-03-07T07:00:20.894Z,70.06
2023-03-07T07:02:53.329Z,70.08
2023-03-07T07:05:26.217Z,70.09
2023-03-07T07:07:58.719Z,70.37
2023-03-07T07:10:31.041Z,70.52
2023-03-07T07:13:04.675Z,70.70
2023-03-07T07:15:37.475Z,70.58
2023-03-07T07:18:11.854Z,70.57
2023-03-07T07:20:44.098Z,70.46
2023-03-07T07:23:16.438Z,70.52
2023-03-07T07:25:48.638Z,70.52
2023-03-07T07:28:20.802Z,70.50
2023-03-07T07:30:53.018Z,70.67
2023-03-07T07:33:25.291Z,70.50
2023-03-07T07:35:59.027Z,70.31
2023-03-07T07:38:31.700Z,70.32
2023-03-07T07:41:03.859Z,70.43
2023-03-07T07:43:37.370Z,70.72
2023-03-07T07:46:17.360Z,70.66
2023-03-07T07:48:50.747Z,70.68
2023-03-07T07:51:23.555Z,70.74
2023-03-07T07:53:56.334Z,70.67
2023-03-07T07:56:28.710Z,70.88
2023-03-07T07:59:00.805Z,70.74
2023-03-07T08:01:33.089Z,70.99
2023-03-07T08:04:05.217Z,70.74
2023-03-07T08:06:37.410Z,70.75
2023-03-07T08:09:09.553Z,70.76
2023-03-07T08:11:42.720Z,70.74
2023-03-07T08:14:14.812Z,70.57
2023-03-07T08:16:46.886Z,70.47
2023-03-07T08:19:19.022Z,70.41
2023-03-07T08:21:51.165Z,70.40
2023-03-07T08:24:29.345Z,70.12
2023-03-07T08:27:07.866Z,69.65
2023-03-07T08:29:40.087Z,69.53
2023-03-07T08:32:15.259Z,70.11
2023-03-07T08:34:47.881Z,70.38
2023-03-07T08:37:20.098Z,70.60
2023-03-07T08:39:52.245Z,70.29
2023-03-07T08:42:24.465Z,70.16
2023-03-07T08:44:56.682Z,70.36
2023-03-07T08:47:28.895Z,70.15
2023-03-07T08:50:01.072Z,70.00
2023-03-07T08:52:33.160Z,70.09
2023-03-07T08:55:05.860Z,70.05
2023-03-07T08:57:37.978Z,70.24
2023-03-07T09:00:14.316Z,70.32
2023-03-07T09:02:46.536Z,70.34
2023-03-07T09:05:19.268Z,70.27
2023-03-07T09:07:51.638Z,70.76
2023-03-07T09:10:24.137Z,70.93
2023-03-07T09:12:56.491Z,70.94
2023-03-07T09:15:28.700Z,70.99
2023-03-07T09:18:00.864Z,70.84
2023-03-07T09:20:32.915Z,70.70
2023-03-07T09:23:05.375Z,70.61
2023-03-07T09:25:39.889Z,70.58
2023-03-07T09:28:12.011Z,70.62
2023-03-07T09:30:44.158Z,70.13
2023-03-07T09:33:17.116Z,70.19
2023-03-07T09:35:49.945Z,70.28
2023-03-07T09:38:22.352Z,70.16
2023-03-07T09:40:55.001Z,70.24
2023-03-07T09:43:34.907Z,70.34
2023-03-07T09:46:34.919Z,70.73
2023-03-07T09:49:21.734Z,70.74
2023-03-07T09:51:59.198Z,70.80
2023-03-07T09:54:40.117Z,70.78
2023-03-07T09:57:20.084Z,70.83
2023-03-07T09:59:55.204Z,70.50
2023-03-07T10:02:34.261Z,70.47
2023-03-07T10:05:17.380Z,70.67
2023-03-07T10:07:49.841Z,70.67
2023-03-07T10:10:25.524Z,70.34
2023-03-07T10:13:12.668Z,70.35
2023-03-07T10:15:49.787Z,70.60
2023-03-07T10:18:47.025Z,70.52
2023-03-07T10:21:29.410Z,70.77
2023-03-07T10:24:20.931Z,70.95
2023-03-07T10:27:01.052Z,70.82
2023-03-07T10:29:40.380Z,71.25
2023-03-07T10:32:24.231Z,71.07
2023-03-07T10:35:02.839Z,70.90
2023-03-07T10:37:46.533Z,70.97
2023-03-07T10:40:24.577Z,71.03
2023-03-07T10:42:58.380Z,70.75
2023-03-07T10:45:33.250Z,70.85
2023-03-07T10:48:10.391Z,70.94
2023-03-07T10:50:47.602Z,70.78
2023-03-07T10:53:26.555Z,70.91
2023-03-07T10:56:13.010Z,70.87
2023-03-07T10:59:02.148Z,71.18
2023-03-07T11:01:35.863Z,70.98
2023-03-07T11:04:21.308Z,71.20
2023-03-07T11:06:54.659Z,71.33
2023-03-07T11:09:30.130Z,71.09
2023-03-07T11:12:12.443Z,71.08
2023-03-07T11:14:52.213Z,71.29
2023-03-07T11:17:27.285Z,70.88
2023-03-07T11:19:58.574Z,70.86
2023-03-07T11:22:33.919Z,70.74
2023-03-07T11:25:16.008Z,70.93
2023-03-07T11:27:54.121Z,71.05
2023-03-07T11:30:29.781Z,71.10
2023-03-07T11:33:17.093Z,71.41
2023-03-07T11:35:58.291Z,71.21
2023-03-07T11:38:42.575Z,71.78
2023-03-07T11:41:23.374Z,72.35
2023-03-07T11:44:19.846Z,72.37
2023-03-07T11:47:30.889Z,71.63
2023-03-07T11:50:22.381Z,72.01
2023-03-07T11:53:17.701Z,72.28
2023-03-07T11:56:01.775Z,72.17
2023-03-07T11:59:03.297Z,72.95
2023-03-07T12:01:44.765Z,72.69
2023-03-07T12:04:54.749Z,72.72
2023-03-07T12:07:57.405Z,72.01
2023-03-07T12:10:45.878Z,72.35
2023-03-07T12:13:34.227Z,72.23
2023-03-07T12:16:19.838Z,72.07
2023-03-07T12:19:08.117Z,71.92
2023-03-07T12:21:59.320Z,71.93
2023-03-07T12:24:36.353Z,71.76
2023-03-07T12:27:16.565Z,72.24
2023-03-07T12:29:53.275Z,72.24
2023-03-07T12:32:27.854Z,72.25
2023-03-07T12:35:05.252Z,72.23
2023-03-07T12:37:44.431Z,72.39
2023-03-07T12:40:22.567Z,72.60
2023-03-07T12:43:00.216Z,72.79
2023-03-07T12:45:49.462Z,72.58
2023-03-07T12:48:29.595Z,72.60
2023-03-07T12:51:09.619Z,72.43
2023-03-07T12:53:47.883Z,72.41
2023-03-07T12:56:24.538Z,72.59
2023-03-07T12:59:02.628Z,72.37
2023-03-07T13:01:38.280Z,72.84
2023-03-07T13:04:18.164Z,72.81
2023-03-07T13:06:51.332Z,72.98
2023-03-07T13:09:26.583Z,73.00
2023-03-07T13:12:31.340Z,73.14
2023-03-07T13:15:05.523Z,73.29
2023-03-07T13:17:59.824Z,73.55
2023-03-07T13:20:43.769Z,73.67
2023-03-07T13:23:29.636Z,73.24
2023-03-07T13:26:24.017Z,73.37
2023-03-07T13:28:57.586Z,73.10
2023-03-07T13:31:44.430Z,73.41
2023-03-07T13:34:51.657Z,73.61
2023-03-07T13:37:53.993Z,73.83
2023-03-07T13:40:53.825Z,74.08
2023-03-07T13:44:00.196Z,74.06
2023-03-07T13:46:54.400Z,74.34
2023-03-07T13:49:47.147Z,74.65
2023-03-07T13:52:31.212Z,74.01
2023-03-07T13:55:06.121Z,74.62
2023-03-07T13:57:44.101Z,74.76
2023-03-07T14:00:38.543Z,74.25
2023-03-07T14:03:28.157Z,74.48
2023-03-07T14:06:04.713Z,74.53
2023-03-07T14:08:37.229Z,74.38
2023-03-07T14:11:20.755Z,74.85
2023-03-07T14:14:17.164Z,74.94
2023-03-07T14:16:59.398Z,74.70
2023-03-07T14:19:49.234Z,75.40
2023-03-07T14:22:36.685Z,74.93
2023-03-07T14:25:19.226Z,74.87
2023-03-07T14:27:56.842Z,75.02
2023-03-07T14:30:31.584Z,74.87
2023-03-07T14:33:04.178Z,74.60
2023-03-07T14:35:39.349Z,74.63
2023-03-07T14:38:22.172Z,75.11
2023-03-07T14:41:12.169Z,75.22
2023-03-07T14:43:56.653Z,75.37
2023-03-07T14:46:40.221Z,75.71
2023-03-07T14:49:23.950Z,75.58
2023-03-07T14:51:56.317Z,75.21
2023-03-07T14:54:35.120Z,75.04
2023-03-07T14:57:16.666Z,75.36
2023-03-07T15:00:20.154Z,75.48
2023-03-07T15:02:54.703Z,75.29
2023-03-07T15:05:30.613Z,75.67
2023-03-07T15:08:02.829Z,76.08
2023-03-07T15:10:42.134Z,75.62
2023-03-07T15:13:24.007Z,75.89
2023-03-07T15:16:00.205Z,75.81
2023-03-07T15:18:36.981Z,75.79
2023-03-07T15:21:17.290Z,75.95
2023-03-07T15:23:56.397Z,75.94
2023-03-07T15:26:30.405Z,76.28
2023-03-07T15:29:08.898Z,75.97
2023-03-07T15:31:54.275Z,76.11
2023-03-07T15:34:26.269Z,75.87
2023-03-07T15:37:22.515Z,75.90
2023-03-07T15:40:02.861Z,75.73
2023-03-07T15:42:35.667Z,76.02
2023-03-07T15:45:22.654Z,76.30
2023-03-07T15:47:55.068Z,76.13
2023-03-07T15:50:29.886Z,76.33
2023-03-07T15:53:09.179Z,75.86
2023-03-07T15:55:56.937Z,76.07
2023-03-07T15:58:30.363Z,76.25
2023-03-07T16:01:18.957Z,76.34
2023-03-07T16:03:56.594Z,76.14
2023-03-07T16:06:42.598Z,76.74
2023-03-07T16:09:16.562Z,76.38
2023-03-07T16:11:49.755Z,76.25
2023-03-07T16:14:26.551Z,76.57
2023-03-07T16:17:01.340Z,76.74
2023-03-07T16:19:33.884Z,76.75
2023-03-07T16:22:10.814Z,76.55
2023-03-07T16:24:43.162Z,76.33
2023-03-07T16:27:18.891Z,76.32
2023-03-07T16:29:51.668Z,75.99
2023-03-07T16:32:24.952Z,76.68
2023-03-07T16:34:57.158Z,76.19
2023-03-07T16:37:29.976Z,76.45
2023-03-07T16:40:02.258Z,76.57
2023-03-07T16:42:35.275Z,76.76
2023-03-07T16:45:12.943Z,76.52
2023-03-07T16:47:45.077Z,76.19
2023-03-07T16:50:20.670Z,76.16
2023-03-07T16:52:52.859Z,76.07
2023-03-07T16:55:25.891Z,76.72
2023-03-07T16:58:01.724Z,76.66
2023-03-07T17:00:34.912Z,76.45
2023-03-07T17:03:07.040Z,76.73
2023-03-07T17:05:39.611Z,76.67
2023-03-07T17:08:11.770Z,76.82
2023-03-07T17:10:44.929Z,76.76
2023-03-07T17:13:19.899Z,77.01
2023-03-07T17:15:50.593Z,76.68
2023-03-07T17:18:23.415Z,77.05
2023-03-07T17:20:55.455Z,76.77
2023-03-07T17:23:27.790Z,76.74
2023-03-07T17:26:00.111Z,76.91
2023-03-07T17:28:32.413Z,76.52
2023-03-07T17:31:04.872Z,77.12
2023-03-07T17:33:36.998Z,77.15
2023-03-07T17:36:12.509Z,78.10
2023-03-07T17:38:44.997Z,77.51
2023-03-07T17:41:17.779Z,77.75
2023-03-07T17:43:49.884Z,77.34
2023-03-07T17:46:24.489Z,78.08
2023-03-07T17:48:57.249Z,77.97
2023-03-07T17:51:29.883Z,77.70
2023-03-07T17:54:02.382Z,77.83
2023-03-07T17:56:34.536Z,77.75
2023-03-07T17:59:06.795Z,77.89
2023-03-07T18:01:40.116Z,78.20
2023-03-07T18:04:12.544Z,79.00
2023-03-07T18:06:44.614Z,79.11
2023-03-07T18:09:18.819Z,78.55
2023-03-07T18:11:51.225Z,78.86
2023-03-07T18:14:23.410Z,78.17
2023-03-07T18:16:56.092Z,78.36
2023-03-07T18:19:28.492Z,78.35
2023-03-07T18:22:00.896Z,79.34
2023-03-07T18:24:33.088Z,78.94
2023-03-07T18:27:08.580Z,78.94
2023-03-07T18:29:40.749Z,79.36
2023-03-07T18:32:13.431Z,79.61
2023-03-07T18:34:46.797Z,79.08
2023-03-07T18:37:19.121Z,79.55
2023-03-07T18:39:51.274Z,79.92
2023-03-07T18:42:23.492Z,79.70
2023-03-07T18:44:55.889Z,79.66
2023-03-07T18:47:28.085Z,80.11
2023-03-07T18:50:00.414Z,80.74
2023-03-07T18:52:32.506Z,80.36
2023-03-07T18:55:04.886Z,80.31
2023-03-07T18:57:37.064Z,80.19
2023-03-07T19:00:13.453Z,80.11
2023-03-07T19:02:45.635Z,80.88
2023-03-07T19:05:18.238Z,80.34
2023-03-07T19:07:50.415Z,80.01
2023-03-07T19:10:22.759Z,80.23
2023-03-07T19:12:54.959Z,80.29
2023-03-07T19:15:27.191Z,79.86
2023-03-07T19:17:59.397Z,79.77
2023-03-07T19:20:31.662Z,79.08
2023-03-07T19:23:03.862Z,78.94
2023-03-07T19:25:38.609Z,78.74
2023-03-07T19:28:10.696Z,78.47
2023-03-07T19:30:42.812Z,78.50
2023-03-07T19:33:14.961Z,78.46
2023-03-07T19:35:47.178Z,78.32
2023-03-07T19:38:19.707Z,78.24
2023-03-07T19:40:52.113Z,77.95
2023-03-07T19:43:24.355Z,77.53
2023-03-07T19:45:56.989Z,77.76
2023-03-07T19:48:29.465Z,77.67
2023-03-07T19:51:01.627Z,77.72
2023-03-07T19:53:33.840Z,77.87
2023-03-07T19:56:13.777Z,78.11
2023-03-07T19:58:45.910Z,77.85
2023-03-07T20:01:19.719Z,77.99
2023-03-07T20:03:52.707Z,77.99
2023-03-07T20:06:28.481Z,77.83
2023-03-07T20:09:01.794Z,77.76
2023-03-07T20:11:36.888Z,77.71
2023-03-07T20:14:07.990Z,77.39
2023-03-07T20:16:40.682Z,77.47
2023-03-07T20:19:14.287Z,77.63
2023-03-07T20:21:49.953Z,77.47
2023-03-07T20:24:22.311Z,77.51
2023-03-07T20:26:54.429Z,77.63
2023-03-07T20:29:26.576Z,77.76
2023-03-07T20:31:58.625Z,77.58
2023-03-07T20:34:30.754Z,77.60
2023-03-07T20:37:03.604Z,77.57
2023-03-07T20:39:35.756Z,77.52
2023-03-07T20:42:08.417Z,77.46
2023-03-07T20:44:40.727Z,77.45
2023-03-07T20:47:12.902Z,77.21
2023-03-07T20:49:45.029Z,77.16
2023-03-07T20:52:17.190Z,77.35
2023-03-07T20:54:49.317Z,77.25
2023-03-07T20:57:21.479Z,77.34
2023-03-07T20:59:53.645Z,77.29
2023-03-07T21:02:25.775Z,77.37
2023-03-07T21:04:58.032Z,77.39
2023-03-07T21:07:30.207Z,77.42
2023-03-07T21:10:02.396Z,77.42
2023-03-07T21:12:36.031Z,77.71
2023-03-07T21:15:10.874Z,77.55
2023-03-07T21:17:43.106Z,77.44
2023-03-07T21:20:15.881Z,77.19
2023-03-07T21:22:48.076Z,77.12
2023-03-07T21:25:20.349Z,77.02
2023-03-07T21:27:52.589Z,77.22
2023-03-07T21:30:24.657Z,77.32
2023-03-07T21:32:59.521Z,77.29
2023-03-07T21:35:32.369Z,77.53
2023-03-07T21:38:04.694Z,77.55
2023-03-07T21:40:36.916Z,77.51
2023-03-07T21:43:09.170Z,77.41
2023-03-07T21:45:41.349Z,77.33
2023-03-07T21:48:13.721Z,77.33
2023-03-07T21:50:46.929Z,77.27
2023-03-07T21:53:19.266Z,77.09
2023-03-07T21:55:57.094Z,77.11
2023-03-07T21:58:30.585Z,77.16
2023-03-07T22:01:09.757Z,77.27
2023-03-07T22:03:42.967Z,77.33
2023-03-07T22:06:16.877Z,77.52
2023-03-07T22:08:49.220Z,77.50
2023-03-07T22:11:21.794Z,77.52
2023-03-07T22:13:54.038Z,77.62
2023-03-07T22:16:26.167Z,77.79
2023-03-07T22:18:58.777Z,77.72
2023-03-07T22:21:30.906Z,77.35
2023-03-07T22:24:03.101Z,77.08
2023-03-07T22:26:35.674Z,77.25
2023-03-07T22:29:07.892Z,77.37
2023-03-07T22:31:40.184Z,77.24
2023-03-07T22:34:12.358Z,77.51
2023-03-07T22:36:44.475Z,77.75
2023-03-07T22:39:16.657Z,77.73
2023-03-07T22:41:48.784Z,77.73
2023-03-07T22:44:21.027Z,77.64
2023-03-07T22:46:53.686Z,77.37
2023-03-07T22:49:26.821Z,77.46
2023-03-07T22:51:59.120Z,77.30
2023-03-07T22:54:31.344Z,77.56
2023-03-07T22:57:03.544Z,77.48
2023-03-07T22:59:35.997Z,77.75
2023-03-07T23:02:08.462Z,77.67
2023-03-07T23:04:40.719Z,77.77
2023-03-07T23:07:13.235Z,77.74
2023-03-07T23:09:45.808Z,77.71
2023-03-07T23:12:17.979Z,77.85
2023-03-07T23:14:50.137Z,77.45
2023-03-07T23:17:22.571Z,77.47
2023-03-07T23:19:55.280Z,77.44
2023-03-07T23:22:27.581Z,77.48
2023-03-07T23:24:59.817Z,77.33
2023-03-07T23:27:32.281Z,77.45
2023-03-07T23:30:04.691Z,77.62
2023-03-07T23:32:36.825Z,77.79
2023-03-07T23:35:11.442Z,77.79
2023-03-07T23:37:43.553Z,78.15
2023-03-07T23:40:16.705Z,77.92
2023-03-07T23:42:49.022Z,78.09
2023-03-07T23:45:22.326Z,77.86
2023-03-07T23:47:54.634Z,77.67
2023-03-07T23:50:27.107Z,77.51
2023-03-07T23:52:59.203Z,77.55
2023-03-07T23:55:31.392Z,77.54
2023-03-07T23:58:03.435Z,77.72
